Time;durP1;ratioP1;P1;durP2;ratioP2;P2;SDS_P1;SDS_P2;PMS_P1;PMS_P2;Temp;Humidity;BMP_temperature;BMP_pressure;BME280_temperature;BME280_humidity;BME280_pressure;Samples;Min_cycle;Max_cycle;Signal;HPM_P1;HPM_P2
2023/01/02 00:07:47;;;;;;;;;;;;;;;11.68;94.68;101215.94;20686022;28;19961;-70
2023/01/02 00:18:09;;;;;;;;;;;;;;;11.67;94.72;101205.63;20693921;28;20004;-70
2023/01/02 00:28:30;;;;;;;;;;;;;;;11.70;95.58;101182.22;20693389;28;19929;-71
2023/01/02 00:38:55;;;;;;;;;;;;;;;11.73;96.03;101185.56;20691535;28;19925;-70
2023/01/02 00:49:17;;;;;;;;;;;;;;;11.76;94.66;101166.47;20685039;28;19929;-71
2023/01/02 00:59:38;;;;;;;;;;;;;;;11.79;94.76;101132.69;20672934;28;19957;-70
2023/01/02 01:09:59;;;;;;;;;;;;;;;11.82;94.45;101133.44;20686353;28;19926;-71
2023/01/02 01:20:21;;;;;;;;;;;;;;;11.81;94.10;101115.34;20683883;28;19932;-70
2023/01/02 01:30:42;;;;;;;;;;;;;;;11.81;95.50;101111.00;20686226;28;19921;-70
2023/01/02 01:41:04;;;;;;;;;;;;;;;11.84;95.20;101090.19;20684833;28;19983;-70
2023/01/02 01:51:27;;;;;;;;;;;;;;;11.96;96.73;101109.66;20688818;28;19976;-70
2023/01/02 02:01:49;;;;;;;;;;;;;;;12.01;93.82;101092.25;20685121;28;20012;-70
2023/01/02 02:12:11;;;;;;;;;;;;;;;12.09;93.70;101085.03;20683681;28;19948;-70
2023/01/02 02:22:45;;;;;;;;;;;;;;;12.17;93.42;101074.44;20681476;28;20393;-70
2023/01/02 02:33:25;;;;;;;;;;;;;;;12.22;93.76;101060.41;20682463;28;19940;-70
2023/01/02 02:44:07;;;;;;;;;;;;;;;12.26;93.00;101051.63;20667100;28;19980;-70
2023/01/02 02:54:32;;;;;;;;;;;;;;;12.32;94.59;101041.06;20621607;28;20344;-70
2023/01/02 03:04:59;;;;;;;;;;;;;;;12.39;92.88;101032.16;20699057;28;19925;-70
2023/01/02 03:15:28;;;;;;;;;;;;;;;12.49;92.82;101011.94;20685114;28;19949;-69
2023/01/02 03:25:50;;;;;;;;;;;;;;;12.60;91.68;100997.66;20697242;28;20324;-70
2023/01/02 03:36:15;;;;;;;;;;;;;;;12.68;92.20;100998.22;20677480;28;20288;-70
2023/01/02 03:46:46;;;;;;;;;;;;;;;12.70;93.01;101009.41;20675660;28;19926;-70
2023/01/02 03:57:07;;;;;;;;;;;;;;;12.78;92.31;101025.56;20690594;28;19984;-70
2023/01/02 04:07:52;;;;;;;;;;;;;;;12.86;90.95;101026.13;20690737;28;20301;-69
2023/01/02 04:18:18;;;;;;;;;;;;;;;12.87;92.12;101020.03;20676523;28;19925;-69
2023/01/02 04:28:39;;;;;;;;;;;;;;;12.86;92.89;101020.94;20703195;28;19929;-69
2023/01/02 04:39:01;;;;;;;;;;;;;;;12.83;94.14;101013.28;20684758;28;19925;-69
2023/01/02 04:49:25;;;;;;;;;;;;;;;12.82;94.34;101001.16;20684051;28;19941;-69
2023/01/02 04:59:46;;;;;;;;;;;;;;;12.87;95.54;101006.22;20685315;28;19949;-69
2023/01/02 05:10:08;;;;;;;;;;;;;;;12.87;96.01;100999.25;20685272;28;19975;-69
2023/01/02 05:20:29;;;;;;;;;;;;;;;12.93;95.25;100985.19;20696527;28;19938;-70
2023/01/02 05:30:51;;;;;;;;;;;;;;;12.95;95.74;100993.78;20670374;28;19953;-70
2023/01/02 05:41:13;;;;;;;;;;;;;;;13.01;95.99;100999.59;20670857;28;19992;-69
2023/01/02 05:51:35;;;;;;;;;;;;;;;13.10;94.96;101007.09;20681833;28;19937;-66
2023/01/02 06:01:57;;;;;;;;;;;;;;;13.11;95.35;100998.38;20652968;28;20051;-65
2023/01/02 06:12:18;;;;;;;;;;;;;;;13.08;95.45;100987.25;20659991;28;19925;-66
2023/01/02 06:22:39;;;;;;;;;;;;;;;13.13;94.78;100993.97;20662112;28;19926;-66
2023/01/02 06:33:01;;;;;;;;;;;;;;;13.17;95.21;100999.06;20676211;28;20368;-65
2023/01/02 06:43:23;;;;;;;;;;;;;;;13.19;94.29;101010.22;20673983;28;19968;-65
2023/01/02 06:53:44;;;;;;;;;;;;;;;13.24;93.35;100996.16;20669157;28;19921;-65
2023/01/02 07:04:11;;;;;;;;;;;;;;;13.20;94.61;100988.53;20670589;28;19921;-66
2023/01/02 07:14:33;;;;;;;;;;;;;;;13.17;94.65;101001.66;20678465;28;19921;-66
2023/01/02 07:24:54;;;;;;;;;;;;;;;13.20;94.59;101017.13;20668271;28;19922;-65
2023/01/02 07:35:15;;;;;;;;;;;;;;;13.20;94.38;101018.00;20681858;28;20071;-66
2023/01/02 07:45:37;;;;;;;;;;;;;;;13.21;94.12;101039.59;20673889;28;19925;-66
2023/01/02 07:55:59;;;;;;;;;;;;;;;13.06;96.80;101051.41;20692693;28;19921;-65
2023/01/02 08:06:21;;;;;;;;;;;;;;;13.16;94.19;101057.13;20757040;22;20366;-70
2023/01/02 08:16:42;;;;;;;;;;;;;;;13.17;94.44;101069.22;20786754;28;20003;-71
2023/01/02 08:27:04;;;;;;;;;;;;;;;13.33;92.72;101075.53;20763669;28;20039;-70
2023/01/02 08:37:25;;;;;;;;;;;;;;;13.29;93.70;101077.41;20759035;28;20470;-71
2023/01/02 08:47:47;;;;;;;;;;;;;;;13.22;93.77;101109.72;20776158;28;20821;-70
2023/01/02 08:58:08;;;;;;;;;;;;;;;13.20;93.67;101124.53;20775257;28;19937;-69
2023/01/02 09:08:30;;;;;;;;;;;;;;;13.10;94.79;101134.41;20745896;28;20053;-70
2023/01/02 09:18:53;;;;;;;;;;;;;;;13.04;95.20;101157.13;20764204;28;20296;-69
2023/01/02 09:29:15;;;;;;;;;;;;;;;13.00;94.83;101197.09;20772188;28;19944;-70
2023/01/02 09:39:36;;;;;;;;;;;;;;;12.87;93.35;101256.38;20758345;28;20442;-71
2023/01/02 09:50:03;;;;;;;;;;;;;;;12.65;91.88;101283.97;20789303;28;19921;-71
2023/01/02 10:00:25;;;;;;;;;;;;;;;12.01;93.88;101330.88;20781694;28;20278;-70
2023/01/02 10:11:02;;;;;;;;;;;;;;;11.61;92.56;101374.28;20752726;28;19948;-71
2023/01/02 10:21:26;;;;;;;;;;;;;;;11.25;92.32;101414.00;20762977;28;19925;-70
2023/01/02 10:31:50;;;;;;;;;;;;;;;11.01;91.92;101426.66;20754607;28;19933;-71
2023/01/02 10:42:13;;;;;;;;;;;;;;;10.79;91.08;101456.47;20762953;28;19925;-71
2023/01/02 10:52:40;;;;;;;;;;;;;;;10.72;90.90;101478.19;20757232;28;19933;-70
2023/01/02 11:03:13;;;;;;;;;;;;;;;10.68;90.37;101473.94;20764994;28;20398;-71
2023/01/02 11:13:45;;;;;;;;;;;;;;;10.63;91.50;101503.41;20777916;28;19999;-70
2023/01/02 11:24:18;;;;;;;;;;;;;;;10.60;89.59;101522.41;20773614;28;20308;-70
2023/01/02 11:34:52;;;;;;;;;;;;;;;10.56;89.88;101525.09;20771424;28;19941;-71
2023/01/02 11:45:17;;;;;;;;;;;;;;;10.55;89.00;101524.25;20849622;28;19920;-70
2023/01/02 11:55:52;;;;;;;;;;;;;;;10.63;89.65;101558.59;20791578;28;20216;-70
2023/01/02 12:06:17;;;;;;;;;;;;;;;10.63;87.55;101548.25;20782386;28;20328;-70
2023/01/02 12:16:50;;;;;;;;;;;;;;;10.65;87.51;101556.84;20769720;28;19944;-70
2023/01/02 12:27:31;;;;;;;;;;;;;;;10.64;87.21;101595.69;20790791;28;19921;-70
2023/01/02 12:37:57;;;;;;;;;;;;;;;10.50;89.93;101624.41;20770101;28;19921;-71
2023/01/02 12:48:29;;;;;;;;;;;;;;;10.37;90.78;101637.53;20783297;28;19921;-71
2023/01/02 12:59:09;;;;;;;;;;;;;;;10.37;90.77;101630.66;20801669;28;19932;-71
2023/01/02 13:09:39;;;;;;;;;;;;;;;10.41;91.26;101660.78;20845204;28;20170;-71
2023/01/02 13:20:03;;;;;;;;;;;;;;;10.35;89.85;101660.84;20758189;28;19925;-70
2023/01/02 13:30:34;;;;;;;;;;;;;;;10.40;89.00;101689.25;20752871;28;19979;-70
2023/01/02 13:40:57;;;;;;;;;;;;;;;10.43;89.55;101684.88;20778026;28;19921;-71
2023/01/02 13:51:23;;;;;;;;;;;;;;;10.47;88.08;101707.25;20758365;28;19929;-71
2023/01/02 14:02:11;;;;;;;;;;;;;;;10.47;87.50;101709.84;20755967;28;19925;-71
2023/01/02 14:12:45;;;;;;;;;;;;;;;10.42;87.44;101709.03;20783285;22;20032;-64
2023/01/02 14:23:32;;;;;;;;;;;;;;;10.45;86.83;101724.53;20786787;28;20035;-64
2023/01/02 14:33:54;;;;;;;;;;;;;;;10.48;86.63;101742.59;20794665;28;19921;-64
2023/01/02 14:44:15;;;;;;;;;;;;;;;10.42;87.08;101752.19;20772102;28;19928;-64
2023/01/02 14:54:45;;;;;;;;;;;;;;;10.39;87.08;101775.50;20786601;28;19979;-64
2023/01/02 15:05:09;;;;;;;;;;;;;;;10.43;87.29;101772.84;20789434;28;20007;-64
2023/01/02 15:15:35;;;;;;;;;;;;;;;10.46;86.09;101772.81;20772832;28;19924;-63
2023/01/02 15:25:56;;;;;;;;;;;;;;;10.42;86.68;101778.91;20791373;28;20043;-64
2023/01/02 15:36:41;;;;;;;;;;;;;;;10.36;87.21;101797.13;20793337;28;19956;-64
2023/01/02 15:47:05;;;;;;;;;;;;;;;10.38;86.79;101808.31;20788497;28;19921;-63
2023/01/02 15:57:28;;;;;;;;;;;;;;;10.35;86.45;101810.91;20795702;28;19921;-64
2023/01/02 16:07:57;;;;;;;;;;;;;;;10.35;86.42;101816.09;20811423;28;19994;-63
2023/01/02 16:18:18;;;;;;;;;;;;;;;10.31;86.67;101844.59;20795541;28;19925;-64
2023/01/02 16:28:41;;;;;;;;;;;;;;;10.31;87.77;101845.44;20807241;28;19987;-63
2023/01/02 16:39:23;;;;;;;;;;;;;;;10.34;87.92;101862.66;20800138;28;19975;-64
2023/01/02 16:49:44;;;;;;;;;;;;;;;10.32;88.36;101887.69;20803962;28;19929;-64
2023/01/02 17:00:06;;;;;;;;;;;;;;;10.30;89.54;101904.97;20805321;28;20198;-63
2023/01/02 17:10:27;;;;;;;;;;;;;;;10.31;91.01;101907.53;20789066;28;20636;-63
2023/01/02 17:20:49;;;;;;;;;;;;;;;10.15;88.57;101931.84;20802240;28;20447;-62
2023/01/02 17:31:12;;;;;;;;;;;;;;;9.96;89.01;101941.50;20805878;28;19986;-63
2023/01/02 17:41:34;;;;;;;;;;;;;;;9.90;86.43;101961.38;20784018;28;19975;-62
2023/01/02 17:51:55;;;;;;;;;;;;;;;9.75;86.12;101969.28;20800550;28;19925;-62
2023/01/02 18:02:18;;;;;;;;;;;;;;;9.64;86.47;101965.91;20796981;28;20428;-63
2023/01/02 18:12:41;;;;;;;;;;;;;;;9.57;86.28;101996.13;20785235;28;20354;-64
2023/01/02 18:23:10;;;;;;;;;;;;;;;9.47;86.93;102011.72;20795458;28;19921;-63
2023/01/02 18:33:31;;;;;;;;;;;;;;;9.34;86.80;102036.72;20796367;28;19921;-63
2023/01/02 18:44:00;;;;;;;;;;;;;;;9.29;87.37;102037.63;20790483;28;19967;-64
2023/01/02 18:54:26;;;;;;;;;;;;;;;9.29;87.52;102058.28;20783822;28;19937;-63
2023/01/02 19:04:47;;;;;;;;;;;;;;;9.21;87.99;102081.56;20799125;28;19993;-64
2023/01/02 19:15:28;;;;;;;;;;;;;;;9.16;88.03;102097.97;20791564;28;19928;-64
2023/01/02 19:25:50;;;;;;;;;;;;;;;9.05;87.72;102122.06;20788056;28;19967;-63
2023/01/02 19:36:16;;;;;;;;;;;;;;;8.96;87.65;102147.06;20804459;28;19921;-64
2023/01/02 19:46:37;;;;;;;;;;;;;;;8.89;87.57;102150.50;20805046;28;19968;-63
2023/01/02 19:56:59;;;;;;;;;;;;;;;8.84;87.83;102166.03;20805504;28;20341;-63
2023/01/02 20:07:21;;;;;;;;;;;;;;;8.81;87.18;102189.22;20808263;28;19946;-64
2023/01/02 20:17:43;;;;;;;;;;;;;;;8.75;86.27;102209.88;20751074;23;19929;-60
2023/01/02 20:28:05;;;;;;;;;;;;;;;8.66;85.59;102233.09;20731447;28;20356;-60
2023/01/02 20:38:26;;;;;;;;;;;;;;;8.57;86.10;102240.00;20721852;28;19933;-60
2023/01/02 20:48:48;;;;;;;;;;;;;;;8.45;86.30;102256.31;20730928;28;19971;-61
2023/01/02 20:59:09;;;;;;;;;;;;;;;8.35;86.00;102270.03;20728045;28;19980;-60
2023/01/02 21:09:31;;;;;;;;;;;;;;;8.23;86.68;102289.72;20727616;28;19921;-60
2023/01/02 21:19:52;;;;;;;;;;;;;;;8.12;86.56;102297.44;20725894;28;20008;-60
2023/01/02 21:30:14;;;;;;;;;;;;;;;8.04;86.78;102325.75;20728789;28;19975;-60
2023/01/02 21:40:35;;;;;;;;;;;;;;;7.88;87.52;102341.13;20731385;28;19929;-60
2023/01/02 21:50:57;;;;;;;;;;;;;;;7.75;87.71;102359.97;20720784;28;20004;-60
2023/01/02 22:01:19;;;;;;;;;;;;;;;7.63;87.99;102383.06;20728075;28;19979;-60
2023/01/02 22:11:56;;;;;;;;;;;;;;;7.52;88.41;102390.72;20716183;28;19921;-60
2023/01/02 22:22:18;;;;;;;;;;;;;;;7.48;88.25;102403.56;20720387;28;19921;-60
2023/01/02 22:32:39;;;;;;;;;;;;;;;7.37;88.46;102410.31;20717302;28;19921;-60
2023/01/02 22:43:01;;;;;;;;;;;;;;;7.33;88.77;102439.47;20727303;28;19991;-60
2023/01/02 22:53:27;;;;;;;;;;;;;;;7.21;89.27;102447.09;20693559;28;19937;-59
2023/01/02 23:03:48;;;;;;;;;;;;;;;7.17;87.94;102465.91;20704006;28;20293;-60
2023/01/02 23:14:11;;;;;;;;;;;;;;;7.10;88.84;102472.72;20763322;28;19921;-60
2023/01/02 23:24:33;;;;;;;;;;;;;;;7.19;89.09;102479.66;20770535;28;19922;-60
2023/01/02 23:34:55;;;;;;;;;;;;;;;7.14;88.98;102495.91;20737007;28;19933;-60
2023/01/02 23:45:16;;;;;;;;;;;;;;;7.05;89.17;102515.53;20736903;28;20058;-60
2023/01/02 23:55:41;;;;;;;;;;;;;;;6.98;89.34;102519.75;20732291;28;20387;-60
